sensor_id;sensor_type;location;lat;lon;timestamp;pressure;altitude;pressure_sealevel;temperature;humidity
52935;BME280;38802;50.198;19.796;2023-05-01T00:01:15;96664.77;;;6.07;52.59
52935;BME280;38802;50.198;19.796;2023-05-01T00:03:43;96665.61;;;6.08;52.79
52935;BME280;38802;50.198;19.796;2023-05-01T00:06:11;96665.20;;;6.09;52.75
52935;BME280;38802;50.198;19.796;2023-05-01T00:08:39;96665.14;;;6.10;52.72
52935;BME280;38802;50.198;19.796;2023-05-01T00:11:07;96660.70;;;6.10;52.65
52935;BME280;38802;50.198;19.796;2023-05-01T00:13:38;96662.81;;;6.09;52.81
52935;BME280;38802;50.198;19.796;2023-05-01T00:16:09;96666.15;;;6.08;52.76
52935;BME280;38802;50.198;19.796;2023-05-01T00:18:38;96665.20;;;6.06;52.97
52935;BME280;38802;50.198;19.796;2023-05-01T00:21:06;96665.42;;;6.05;52.86
52935;BME280;38802;50.198;19.796;2023-05-01T00:23:34;96663.92;;;6.04;52.86
52935;BME280;38802;50.198;19.796;2023-05-01T00:26:04;96663.89;;;6.02;53.08
52935;BME280;38802;50.198;19.796;2023-05-01T00:28:31;96665.61;;;6.02;53.16
52935;BME280;38802;50.198;19.796;2023-05-01T00:30:59;96664.77;;;6.01;53.15
52935;BME280;38802;50.198;19.796;2023-05-01T00:33:27;96662.10;;;6.00;53.15
52935;BME280;38802;50.198;19.796;2023-05-01T00:35:56;96662.98;;;5.99;53.30
52935;BME280;38802;50.198;19.796;2023-05-01T00:38:23;96663.07;;;5.98;53.24
52935;BME280;38802;50.198;19.796;2023-05-01T00:40:52;96657.79;;;5.94;53.21
52935;BME280;38802;50.198;19.796;2023-05-01T00:43:20;96658.33;;;5.90;53.35
52935;BME280;38802;50.198;19.796;2023-05-01T00:45:48;96656.52;;;5.88;53.50
52935;BME280;38802;50.198;19.796;2023-05-01T00:48:17;96657.19;;;5.89;53.50
52935;BME280;38802;50.198;19.796;2023-05-01T00:50:46;96658.95;;;5.88;53.59
52935;BME280;38802;50.198;19.796;2023-05-01T00:53:15;96656.92;;;5.87;53.63
52935;BME280;38802;50.198;19.796;2023-05-01T00:55:44;96654.34;;;5.87;53.62
52935;BME280;38802;50.198;19.796;2023-05-01T00:58:12;96658.98;;;5.87;53.62
52935;BME280;38802;50.198;19.796;2023-05-01T01:00:43;96656.09;;;5.87;53.76
52935;BME280;38802;50.198;19.796;2023-05-01T01:03:11;96660.45;;;5.86;53.77
52935;BME280;38802;50.198;19.796;2023-05-01T01:05:48;96662.04;;;5.85;53.82
52935;BME280;38802;50.198;19.796;2023-05-01T01:08:23;96662.14;;;5.83;53.85
52935;BME280;38802;50.198;19.796;2023-05-01T01:13:39;96662.44;;;5.81;54.00
52935;BME280;38802;50.198;19.796;2023-05-01T01:16:20;96663.38;;;5.77;53.96
52935;BME280;38802;50.198;19.796;2023-05-01T01:19:33;96660.67;;;5.76;54.09
52935;BME280;38802;50.198;19.796;2023-05-01T01:22:12;96660.70;;;5.73;54.10
52935;BME280;38802;50.198;19.796;2023-05-01T01:36:16;96654.05;;;5.68;54.47
52935;BME280;38802;50.198;19.796;2023-05-01T01:41:49;96650.23;;;5.62;54.55
52935;BME280;38802;50.198;19.796;2023-05-01T01:44:22;96649.91;;;5.61;54.69
52935;BME280;38802;50.198;19.796;2023-05-01T01:46:53;96652.94;;;5.60;54.66
52935;BME280;38802;50.198;19.796;2023-05-01T01:49:24;96648.25;;;5.60;54.82
52935;BME280;38802;50.198;19.796;2023-05-01T01:51:54;96651.02;;;5.60;54.81
52935;BME280;38802;50.198;19.796;2023-05-01T01:54:48;96648.95;;;5.60;54.93
52935;BME280;38802;50.198;19.796;2023-05-01T01:57:18;96647.69;;;5.58;55.00
52935;BME280;38802;50.198;19.796;2023-05-01T01:59:48;96648.70;;;5.58;55.17
52935;BME280;38802;50.198;19.796;2023-05-01T02:02:19;96645.63;;;5.58;55.17
52935;BME280;38802;50.198;19.796;2023-05-01T02:04:48;96644.40;;;5.58;55.14
52935;BME280;38802;50.198;19.796;2023-05-01T02:07:19;96642.37;;;5.58;55.20
52935;BME280;38802;50.198;19.796;2023-05-01T02:09:50;96640.23;;;5.56;55.23
52935;BME280;38802;50.198;19.796;2023-05-01T02:12:22;96634.93;;;5.55;55.33
52935;BME280;38802;50.198;19.796;2023-05-01T02:14:52;96641.25;;;5.53;55.27
52935;BME280;38802;50.198;19.796;2023-05-01T02:17:20;96635.15;;;5.51;55.30
52935;BME280;38802;50.198;19.796;2023-05-01T02:19:49;96634.83;;;5.48;55.44
52935;BME280;38802;50.198;19.796;2023-05-01T02:22:20;96631.05;;;5.45;55.39
52935;BME280;38802;50.198;19.796;2023-05-01T02:24:51;96629.57;;;5.43;55.50
52935;BME280;38802;50.198;19.796;2023-05-01T02:27:29;96627.32;;;5.44;55.57
52935;BME280;38802;50.198;19.796;2023-05-01T02:29:59;96625.84;;;5.45;55.63
52935;BME280;38802;50.198;19.796;2023-05-01T02:32:27;96626.86;;;5.46;55.70
52935;BME280;38802;50.198;19.796;2023-05-01T02:34:56;96627.41;;;5.45;55.72
52935;BME280;38802;50.198;19.796;2023-05-01T02:37:24;96625.14;;;5.45;55.78
52935;BME280;38802;50.198;19.796;2023-05-01T02:39:53;96623.92;;;5.46;55.85
52935;BME280;38802;50.198;19.796;2023-05-01T02:42:23;96624.46;;;5.42;55.88
52935;BME280;38802;50.198;19.796;2023-05-01T02:45:01;96626.61;;;5.38;55.97
52935;BME280;38802;50.198;19.796;2023-05-01T02:47:31;96622.39;;;5.36;55.96
52935;BME280;38802;50.198;19.796;2023-05-01T02:50:01;96618.79;;;5.36;56.02
52935;BME280;38802;50.198;19.796;2023-05-01T02:52:31;96617.02;;;5.37;56.10
52935;BME280;38802;50.198;19.796;2023-05-01T02:55:11;96617.77;;;5.36;56.17
52935;BME280;38802;50.198;19.796;2023-05-01T02:57:40;96614.41;;;5.34;56.15
52935;BME280;38802;50.198;19.796;2023-05-01T03:00:09;96612.77;;;5.32;56.25
52935;BME280;38802;50.198;19.796;2023-05-01T03:02:41;96613.79;;;5.33;56.37
52935;BME280;38802;50.198;19.796;2023-05-01T03:05:09;96614.55;;;5.31;56.41
52935;BME280;38802;50.198;19.796;2023-05-01T03:07:37;96616.39;;;5.29;56.46
52935;BME280;38802;50.198;19.796;2023-05-01T03:10:05;96616.81;;;5.28;56.64
52935;BME280;38802;50.198;19.796;2023-05-01T03:12:34;96614.10;;;5.27;56.57
52935;BME280;38802;50.198;19.796;2023-05-01T03:15:02;96614.61;;;5.27;56.67
52935;BME280;38802;50.198;19.796;2023-05-01T03:17:30;96615.66;;;5.27;56.83
52935;BME280;38802;50.198;19.796;2023-05-01T03:19:58;96611.88;;;5.27;56.85
52935;BME280;38802;50.198;19.796;2023-05-01T03:22:29;96612.80;;;5.26;56.85
52935;BME280;38802;50.198;19.796;2023-05-01T03:24:59;96609.33;;;5.26;57.11
52935;BME280;38802;50.198;19.796;2023-05-01T03:27:28;96608.15;;;5.26;57.02
52935;BME280;38802;50.198;19.796;2023-05-01T03:29:58;96607.80;;;5.26;56.95
52935;BME280;38802;50.198;19.796;2023-05-01T03:32:26;96607.13;;;5.26;56.98
52935;BME280;38802;50.198;19.796;2023-05-01T03:34:56;96605.86;;;5.26;56.95
52935;BME280;38802;50.198;19.796;2023-05-01T03:37:24;96603.70;;;5.22;57.03
52935;BME280;38802;50.198;19.796;2023-05-01T03:39:53;96601.27;;;5.19;57.01
52935;BME280;38802;50.198;19.796;2023-05-01T03:42:40;96601.73;;;5.20;57.08
52935;BME280;38802;50.198;19.796;2023-05-01T03:45:13;96599.96;;;5.21;57.19
52935;BME280;38802;50.198;19.796;2023-05-01T03:47:41;96601.39;;;5.20;57.18
52935;BME280;38802;50.198;19.796;2023-05-01T03:50:09;96605.34;;;5.20;57.26
52935;BME280;38802;50.198;19.796;2023-05-01T03:52:39;96603.16;;;5.19;57.34
52935;BME280;38802;50.198;19.796;2023-05-01T03:55:07;96604.73;;;5.15;57.53
52935;BME280;38802;50.198;19.796;2023-05-01T03:57:40;96599.80;;;5.11;57.62
52935;BME280;38802;50.198;19.796;2023-05-01T04:00:10;96594.34;;;5.11;57.50
52935;BME280;38802;50.198;19.796;2023-05-01T04:02:45;96595.52;;;5.11;57.81
52935;BME280;38802;50.198;19.796;2023-05-01T04:05:18;96597.29;;;5.13;57.64
52935;BME280;38802;50.198;19.796;2023-05-01T04:07:49;96599.36;;;5.16;57.81
52935;BME280;38802;50.198;19.796;2023-05-01T04:10:19;96595.33;;;5.17;57.87
52935;BME280;38802;50.198;19.796;2023-05-01T04:12:53;96598.20;;;5.22;57.76
52935;BME280;38802;50.198;19.796;2023-05-01T04:15:21;96595.39;;;5.26;57.74
52935;BME280;38802;50.198;19.796;2023-05-01T04:17:49;96596.30;;;5.31;57.89
52935;BME280;38802;50.198;19.796;2023-05-01T04:20:18;96595.20;;;5.36;58.14
52935;BME280;38802;50.198;19.796;2023-05-01T04:22:46;96595.00;;;5.42;58.02
52935;BME280;38802;50.198;19.796;2023-05-01T04:25:15;96592.49;;;5.53;58.12
52935;BME280;38802;50.198;19.796;2023-05-01T04:27:44;96591.26;;;5.62;58.05
52935;BME280;38802;50.198;19.796;2023-05-01T04:30:12;96591.60;;;5.72;58.08
52935;BME280;38802;50.198;19.796;2023-05-01T04:32:40;96591.87;;;5.82;58.07
52935;BME280;38802;50.198;19.796;2023-05-01T04:35:08;96593.09;;;5.91;58.11
52935;BME280;38802;50.198;19.796;2023-05-01T04:37:40;96592.19;;;5.98;58.25
52935;BME280;38802;50.198;19.796;2023-05-01T04:40:09;96591.67;;;6.07;58.07
52935;BME280;38802;50.198;19.796;2023-05-01T04:42:39;96586.27;;;6.17;57.89
52935;BME280;38802;50.198;19.796;2023-05-01T04:45:09;96585.32;;;6.27;57.97
52935;BME280;38802;50.198;19.796;2023-05-01T04:47:37;96585.62;;;6.39;57.78
52935;BME280;38802;50.198;19.796;2023-05-01T04:50:06;96583.57;;;6.53;57.51
52935;BME280;38802;50.198;19.796;2023-05-01T04:52:35;96582.32;;;6.68;57.43
52935;BME280;38802;50.198;19.796;2023-05-01T04:55:03;96586.81;;;6.85;57.25
52935;BME280;38802;50.198;19.796;2023-05-01T04:57:34;96587.08;;;7.00;56.74
52935;BME280;38802;50.198;19.796;2023-05-01T05:00:05;96589.04;;;7.13;56.08
52935;BME280;38802;50.198;19.796;2023-05-01T05:02:39;96587.54;;;7.28;56.69
52935;BME280;38802;50.198;19.796;2023-05-01T05:05:08;96586.33;;;7.47;56.69
52935;BME280;38802;50.198;19.796;2023-05-01T05:07:39;96581.90;;;7.68;56.21
52935;BME280;38802;50.198;19.796;2023-05-01T05:10:26;96580.85;;;7.86;55.88
52935;BME280;38802;50.198;19.796;2023-05-01T05:13:08;96575.52;;;8.09;55.84
52935;BME280;38802;50.198;19.796;2023-05-01T05:15:37;96574.98;;;8.27;54.99
52935;BME280;38802;50.198;19.796;2023-05-01T05:18:08;96566.84;;;8.45;54.47
52935;BME280;38802;50.198;19.796;2023-05-01T05:20:37;96564.77;;;8.63;54.86
52935;BME280;38802;50.198;19.796;2023-05-01T05:23:06;96570.14;;;8.81;54.68
52935;BME280;38802;50.198;19.796;2023-05-01T05:25:35;96573.52;;;8.99;53.77
52935;BME280;38802;50.198;19.796;2023-05-01T05:28:03;96574.85;;;9.17;53.65
52935;BME280;38802;50.198;19.796;2023-05-01T05:30:31;96574.34;;;9.36;53.64
52935;BME280;38802;50.198;19.796;2023-05-01T05:32:59;96575.84;;;9.54;53.17
52935;BME280;38802;50.198;19.796;2023-05-01T05:35:28;96576.79;;;9.69;52.67
52935;BME280;38802;50.198;19.796;2023-05-01T05:37:56;96578.00;;;9.84;52.85
52935;BME280;38802;50.198;19.796;2023-05-01T05:40:25;96576.50;;;10.01;52.86
52935;BME280;38802;50.198;19.796;2023-05-01T05:42:55;96573.13;;;10.24;52.81
52935;BME280;38802;50.198;19.796;2023-05-01T05:45:25;96568.23;;;10.40;52.39
52935;BME280;38802;50.198;19.796;2023-05-01T05:47:53;96570.70;;;10.45;51.08
52935;BME280;38802;50.198;19.796;2023-05-01T05:50:21;96570.55;;;10.51;50.83
52935;BME280;38802;50.198;19.796;2023-05-01T05:52:49;96567.12;;;10.55;50.81
52935;BME280;38802;50.198;19.796;2023-05-01T05:55:18;96570.93;;;10.64;50.04
52935;BME280;38802;50.198;19.796;2023-05-01T05:57:58;96570.98;;;10.67;50.41
52935;BME280;38802;50.198;19.796;2023-05-01T06:00:27;96567.95;;;10.84;51.11
52935;BME280;38802;50.198;19.796;2023-05-01T06:02:56;96563.31;;;11.04;50.63
52935;BME280;38802;50.198;19.796;2023-05-01T06:05:26;96567.36;;;11.12;49.15
52935;BME280;38802;50.198;19.796;2023-05-01T06:07:54;96565.52;;;11.07;49.55
52935;BME280;38802;50.198;19.796;2023-05-01T06:10:22;96563.29;;;11.15;49.72
52935;BME280;38802;50.198;19.796;2023-05-01T06:12:50;96565.38;;;11.26;49.39
52935;BME280;38802;50.198;19.796;2023-05-01T06:15:27;96565.01;;;11.32;48.85
52935;BME280;38802;50.198;19.796;2023-05-01T06:17:58;96570.64;;;11.38;49.12
52935;BME280;38802;50.198;19.796;2023-05-01T06:20:26;96569.95;;;11.41;48.77
52935;BME280;38802;50.198;19.796;2023-05-01T06:22:55;96568.41;;;11.45;48.95
52935;BME280;38802;50.198;19.796;2023-05-01T06:25:29;96568.61;;;11.48;48.29
52935;BME280;38802;50.198;19.796;2023-05-01T06:27:57;96570.01;;;11.48;48.52
52935;BME280;38802;50.198;19.796;2023-05-01T06:30:25;96571.05;;;11.63;49.33
52935;BME280;38802;50.198;19.796;2023-05-01T06:32:53;96570.44;;;11.84;49.11
52935;BME280;38802;50.198;19.796;2023-05-01T06:35:21;96567.98;;;11.97;48.39
52935;BME280;38802;50.198;19.796;2023-05-01T06:37:50;96561.62;;;12.04;47.73
52935;BME280;38802;50.198;19.796;2023-05-01T06:40:18;96568.41;;;12.15;48.59
52935;BME280;38802;50.198;19.796;2023-05-01T06:42:46;96569.23;;;12.34;48.45
52935;BME280;38802;50.198;19.796;2023-05-01T06:45:19;96568.45;;;12.49;47.90
52935;BME280;38802;50.198;19.796;2023-05-01T06:47:50;96567.45;;;12.59;47.19
52935;BME280;38802;50.198;19.796;2023-05-01T06:50:18;96563.03;;;12.58;47.19
52935;BME280;38802;50.198;19.796;2023-05-01T06:52:46;96562.32;;;12.62;47.74
52935;BME280;38802;50.198;19.796;2023-05-01T06:55:14;96562.45;;;12.79;48.05
52935;BME280;38802;50.198;19.796;2023-05-01T06:57:43;96566.70;;;12.97;47.41
52935;BME280;38802;50.198;19.796;2023-05-01T07:00:12;96564.56;;;13.05;47.33
52935;BME280;38802;50.198;19.796;2023-05-01T07:02:40;96567.34;;;13.11;46.88
52935;BME280;38802;50.198;19.796;2023-05-01T07:05:09;96567.09;;;13.14;46.93
52935;BME280;38802;50.198;19.796;2023-05-01T07:07:37;96563.56;;;13.23;46.68
52935;BME280;38802;50.198;19.796;2023-05-01T07:10:14;96561.65;;;13.33;47.24
52935;BME280;38802;50.198;19.796;2023-05-01T07:12:42;96564.83;;;13.48;46.73
52935;BME280;38802;50.198;19.796;2023-05-01T07:15:10;96568.13;;;13.50;46.28
52935;BME280;38802;50.198;19.796;2023-05-01T07:17:38;96570.80;;;13.52;46.24
52935;BME280;38802;50.198;19.796;2023-05-01T07:20:06;96573.59;;;13.65;47.49
52935;BME280;38802;50.198;19.796;2023-05-01T07:22:35;96571.70;;;13.80;46.20
52935;BME280;38802;50.198;19.796;2023-05-01T07:25:03;96567.91;;;13.66;44.76
52935;BME280;38802;50.198;19.796;2023-05-01T07:27:31;96571.35;;;13.63;45.73
52935;BME280;38802;50.198;19.796;2023-05-01T07:29:59;96571.86;;;13.63;45.78
52935;BME280;38802;50.198;19.796;2023-05-01T07:32:28;96574.48;;;13.63;44.87
52935;BME280;38802;50.198;19.796;2023-05-01T07:34:58;96572.88;;;13.54;45.18
52935;BME280;38802;50.198;19.796;2023-05-01T07:37:26;96570.41;;;13.50;44.75
52935;BME280;38802;50.198;19.796;2023-05-01T07:39:55;96569.78;;;13.51;45.02
52935;BME280;38802;50.198;19.796;2023-05-01T07:42:25;96569.06;;;13.63;44.77
52935;BME280;38802;50.198;19.796;2023-05-01T07:44:53;96566.98;;;13.71;44.67
52935;BME280;38802;50.198;19.796;2023-05-01T07:47:21;96570.36;;;13.72;43.71
52935;BME280;38802;50.198;19.796;2023-05-01T07:49:49;96572.05;;;13.75;43.65
52935;BME280;38802;50.198;19.796;2023-05-01T07:52:17;96572.74;;;13.73;43.42
52935;BME280;38802;50.198;19.796;2023-05-01T07:54:49;96577.56;;;13.68;43.54
52935;BME280;38802;50.198;19.796;2023-05-01T07:57:17;96573.81;;;13.69;43.07
52935;BME280;38802;50.198;19.796;2023-05-01T07:59:46;96573.29;;;13.57;43.40
52935;BME280;38802;50.198;19.796;2023-05-01T08:02:18;96573.40;;;13.65;43.63
52935;BME280;38802;50.198;19.796;2023-05-01T08:04:46;96574.34;;;13.67;43.18
52935;BME280;38802;50.198;19.796;2023-05-01T08:07:15;96568.55;;;13.65;42.98
52935;BME280;38802;50.198;19.796;2023-05-01T08:09:44;96564.85;;;13.75;43.76
52935;BME280;38802;50.198;19.796;2023-05-01T08:12:13;96559.80;;;13.96;44.10
52935;BME280;38802;50.198;19.796;2023-05-01T08:14:41;96564.06;;;14.05;42.89
52935;BME280;38802;50.198;19.796;2023-05-01T08:17:09;96564.95;;;13.98;43.12
52935;BME280;38802;50.198;19.796;2023-05-01T08:19:37;96570.17;;;13.96;42.91
52935;BME280;38802;50.198;19.796;2023-05-01T08:22:05;96576.38;;;13.93;42.83
52935;BME280;38802;50.198;19.796;2023-05-01T08:24:33;96573.45;;;13.98;43.26
52935;BME280;38802;50.198;19.796;2023-05-01T08:27:01;96570.68;;;14.07;42.62
52935;BME280;38802;50.198;19.796;2023-05-01T08:29:29;96569.35;;;14.12;42.91
52935;BME280;38802;50.198;19.796;2023-05-01T08:31:57;96570.00;;;14.20;42.90
52935;BME280;38802;50.198;19.796;2023-05-01T08:34:25;96567.04;;;14.09;41.61
52935;BME280;38802;50.198;19.796;2023-05-01T08:36:54;96564.95;;;13.97;42.79
52935;BME280;38802;50.198;19.796;2023-05-01T08:39:21;96570.68;;;14.07;43.04
52935;BME280;38802;50.198;19.796;2023-05-01T08:41:50;96566.92;;;14.12;43.08
52935;BME280;38802;50.198;19.796;2023-05-01T08:44:24;96568.31;;;14.18;42.85
52935;BME280;38802;50.198;19.796;2023-05-01T08:47:06;96571.30;;;14.18;43.23
52935;BME280;38802;50.198;19.796;2023-05-01T08:49:39;96564.09;;;14.33;42.98
52935;BME280;38802;50.198;19.796;2023-05-01T08:52:13;96565.83;;;14.37;42.85
52935;BME280;38802;50.198;19.796;2023-05-01T08:54:43;96569.92;;;14.25;42.87
52935;BME280;38802;50.198;19.796;2023-05-01T08:57:11;96569.70;;;14.16;42.78
52935;BME280;38802;50.198;19.796;2023-05-01T08:59:40;96566.60;;;14.21;43.38
52935;BME280;38802;50.198;19.796;2023-05-01T09:02:10;96569.63;;;14.26;43.07
52935;BME280;38802;50.198;19.796;2023-05-01T09:04:39;96565.35;;;14.25;42.66
52935;BME280;38802;50.198;19.796;2023-05-01T09:07:08;96565.14;;;14.18;42.47
52935;BME280;38802;50.198;19.796;2023-05-01T09:09:37;96561.95;;;14.19;42.94
52935;BME280;38802;50.198;19.796;2023-05-01T09:12:20;96556.20;;;14.36;43.63
52935;BME280;38802;50.198;19.796;2023-05-01T09:14:54;96551.69;;;14.56;43.33
52935;BME280;38802;50.198;19.796;2023-05-01T09:17:23;96548.85;;;14.62;43.15
52935;BME280;38802;50.198;19.796;2023-05-01T09:19:52;96549.35;;;14.55;43.01
52935;BME280;38802;50.198;19.796;2023-05-01T09:22:20;96551.55;;;14.39;42.03
52935;BME280;38802;50.198;19.796;2023-05-01T09:24:48;96550.56;;;14.38;42.26
52935;BME280;38802;50.198;19.796;2023-05-01T09:27:16;96547.54;;;14.45;42.78
52935;BME280;38802;50.198;19.796;2023-05-01T09:29:46;96545.23;;;14.54;43.03
52935;BME280;38802;50.198;19.796;2023-05-01T09:32:25;96542.84;;;14.61;41.89
52935;BME280;38802;50.198;19.796;2023-05-01T09:35:11;96539.58;;;14.44;41.48
52935;BME280;38802;50.198;19.796;2023-05-01T09:37:39;96534.96;;;14.38;42.18
52935;BME280;38802;50.198;19.796;2023-05-01T09:42:38;96531.34;;;14.31;42.36
52935;BME280;38802;50.198;19.796;2023-05-01T09:45:17;96533.07;;;14.38;42.27
52935;BME280;38802;50.198;19.796;2023-05-01T09:47:46;96527.91;;;14.35;42.35
52935;BME280;38802;50.198;19.796;2023-05-01T09:53:00;96523.38;;;14.39;42.75
52935;BME280;38802;50.198;19.796;2023-05-01T09:55:32;96522.48;;;14.51;43.27
52935;BME280;38802;50.198;19.796;2023-05-01T09:58:01;96516.04;;;14.52;43.20
52935;BME280;38802;50.198;19.796;2023-05-01T10:00:29;96518.14;;;14.54;44.08
52935;BME280;38802;50.198;19.796;2023-05-01T10:02:57;96518.20;;;14.65;44.79
52935;BME280;38802;50.198;19.796;2023-05-01T10:05:42;96519.44;;;14.80;44.26
52935;BME280;38802;50.198;19.796;2023-05-01T10:08:15;96519.09;;;14.70;43.32
52935;BME280;38802;50.198;19.796;2023-05-01T10:10:43;96512.04;;;14.65;43.52
52935;BME280;38802;50.198;19.796;2023-05-01T10:13:16;96510.56;;;14.71;44.13
52935;BME280;38802;50.198;19.796;2023-05-01T10:15:44;96509.98;;;14.72;42.93
52935;BME280;38802;50.198;19.796;2023-05-01T10:18:15;96508.67;;;14.69;43.01
52935;BME280;38802;50.198;19.796;2023-05-01T10:20:43;96501.81;;;14.79;43.41
52935;BME280;38802;50.198;19.796;2023-05-01T10:23:12;96500.95;;;14.81;42.81
52935;BME280;38802;50.198;19.796;2023-05-01T10:25:40;96493.55;;;14.82;43.65
52935;BME280;38802;50.198;19.796;2023-05-01T10:28:10;96497.32;;;14.93;43.32
52935;BME280;38802;50.198;19.796;2023-05-01T10:30:40;96494.88;;;14.95;43.42
52935;BME280;38802;50.198;19.796;2023-05-01T10:33:12;96495.08;;;15.00;43.27
52935;BME280;38802;50.198;19.796;2023-05-01T10:35:44;96492.09;;;15.04;43.72
52935;BME280;38802;50.198;19.796;2023-05-01T10:38:22;96491.33;;;15.09;42.79
52935;BME280;38802;50.198;19.796;2023-05-01T10:40:52;96490.90;;;15.00;42.01
52935;BME280;38802;50.198;19.796;2023-05-01T10:43:23;96488.77;;;14.82;42.78
52935;BME280;38802;50.198;19.796;2023-05-01T10:53:48;96487.35;;;15.02;42.48
52935;BME280;38802;50.198;19.796;2023-05-01T11:01:39;96478.67;;;14.83;42.57
52935;BME280;38802;50.198;19.796;2023-05-01T11:09:51;96479.23;;;14.90;41.67
52935;BME280;38802;50.198;19.796;2023-05-01T11:15:09;96469.37;;;14.78;40.89
52935;BME280;38802;50.198;19.796;2023-05-01T11:20:10;96464.02;;;14.83;41.82
52935;BME280;38802;50.198;19.796;2023-05-01T11:22:43;96462.02;;;14.92;41.78
52935;BME280;38802;50.198;19.796;2023-05-01T11:25:21;96458.13;;;14.93;40.81
52935;BME280;38802;50.198;19.796;2023-05-01T11:28:02;96453.49;;;14.87;41.00
52935;BME280;38802;50.198;19.796;2023-05-01T11:30:37;96450.70;;;14.89;41.18
52935;BME280;38802;50.198;19.796;2023-05-01T11:33:06;96445.90;;;14.82;40.91
52935;BME280;38802;50.198;19.796;2023-05-01T11:35:37;96446.64;;;14.84;41.84
52935;BME280;38802;50.198;19.796;2023-05-01T11:38:15;96444.45;;;14.92;41.73
52935;BME280;38802;50.198;19.796;2023-05-01T11:40:53;96446.98;;;15.00;41.58
52935;BME280;38802;50.198;19.796;2023-05-01T11:43:22;96444.21;;;15.07;40.36
52935;BME280;38802;50.198;19.796;2023-05-01T11:45:51;96450.42;;;15.17;40.76
52935;BME280;38802;50.198;19.796;2023-05-01T11:48:29;96441.46;;;15.31;39.94
52935;BME280;38802;50.198;19.796;2023-05-01T11:50:57;96441.92;;;15.32;38.74
52935;BME280;38802;50.198;19.796;2023-05-01T11:53:25;96438.69;;;15.26;38.82
52935;BME280;38802;50.198;19.796;2023-05-01T11:55:53;96433.75;;;15.28;38.43
52935;BME280;38802;50.198;19.796;2023-05-01T11:58:32;96432.68;;;15.30;38.98
52935;BME280;38802;50.198;19.796;2023-05-01T12:01:00;96433.21;;;15.30;39.08
52935;BME280;38802;50.198;19.796;2023-05-01T12:03:40;96434.13;;;15.38;39.39
52935;BME280;38802;50.198;19.796;2023-05-01T12:06:11;96431.73;;;15.37;39.21
52935;BME280;38802;50.198;19.796;2023-05-01T12:08:46;96426.26;;;15.38;39.41
52935;BME280;38802;50.198;19.796;2023-05-01T12:11:17;96422.73;;;15.40;38.79
52935;BME280;38802;50.198;19.796;2023-05-01T12:13:47;96418.48;;;15.43;39.44
52935;BME280;38802;50.198;19.796;2023-05-01T12:16:17;96414.61;;;15.52;38.94
52935;BME280;38802;50.198;19.796;2023-05-01T12:18:46;96413.43;;;15.56;38.62
52935;BME280;38802;50.198;19.796;2023-05-01T12:21:15;96406.57;;;15.51;38.57
52935;BME280;38802;50.198;19.796;2023-05-01T12:23:44;96411.59;;;15.52;38.34
52935;BME280;38802;50.198;19.796;2023-05-01T12:26:24;96407.74;;;15.55;38.76
52935;BME280;38802;50.198;19.796;2023-05-01T12:31:21;96393.75;;;15.50;38.36
52935;BME280;38802;50.198;19.796;2023-05-01T12:33:59;96388.14;;;15.55;38.82
52935;BME280;38802;50.198;19.796;2023-05-01T12:36:32;96383.61;;;15.62;39.01
52935;BME280;38802;50.198;19.796;2023-05-01T12:39:07;96382.10;;;15.65;37.97
52935;BME280;38802;50.198;19.796;2023-05-01T12:41:54;96379.50;;;15.65;37.73
52935;BME280;38802;50.198;19.796;2023-05-01T12:44:27;96377.76;;;15.63;38.16
52935;BME280;38802;50.198;19.796;2023-05-01T12:47:05;96373.29;;;15.57;37.64
52935;BME280;38802;50.198;19.796;2023-05-01T12:49:35;96373.29;;;15.55;38.09
52935;BME280;38802;50.198;19.796;2023-05-01T12:52:07;96367.48;;;15.53;37.84
52935;BME280;38802;50.198;19.796;2023-05-01T12:54:38;96363.39;;;15.56;37.98
52935;BME280;38802;50.198;19.796;2023-05-01T12:57:06;96361.52;;;15.57;37.88
52935;BME280;38802;50.198;19.796;2023-05-01T12:59:36;96358.16;;;15.57;37.96
52935;BME280;38802;50.198;19.796;2023-05-01T13:02:06;96358.23;;;15.56;37.98
52935;BME280;38802;50.198;19.796;2023-05-01T13:04:36;96356.77;;;15.57;37.86
52935;BME280;38802;50.198;19.796;2023-05-01T13:09:58;96356.64;;;15.61;38.41
52935;BME280;38802;50.198;19.796;2023-05-01T13:12:29;96354.08;;;15.65;38.20
52935;BME280;38802;50.198;19.796;2023-05-01T13:14:57;96348.75;;;15.68;37.93
52935;BME280;38802;50.198;19.796;2023-05-01T13:17:33;96346.30;;;15.66;36.84
52935;BME280;38802;50.198;19.796;2023-05-01T13:20:02;96343.89;;;15.62;37.28
52935;BME280;38802;50.198;19.796;2023-05-01T13:22:36;96341.30;;;15.67;37.75
52935;BME280;38802;50.198;19.796;2023-05-01T13:27:46;96335.75;;;15.63;37.00
52935;BME280;38802;50.198;19.796;2023-05-01T13:30:17;96328.20;;;15.60;36.72
52935;BME280;38802;50.198;19.796;2023-05-01T13:32:48;96328.27;;;15.69;37.02
52935;BME280;38802;50.198;19.796;2023-05-01T13:35:24;96323.83;;;15.70;37.13
52935;BME280;38802;50.198;19.796;2023-05-01T13:37:53;96321.99;;;15.69;36.19
52935;BME280;38802;50.198;19.796;2023-05-01T13:40:23;96318.20;;;15.72;36.59
52935;BME280;38802;50.198;19.796;2023-05-01T13:42:52;96316.81;;;15.77;36.94
52935;BME280;38802;50.198;19.796;2023-05-01T13:45:21;96313.00;;;15.77;36.76
52935;BME280;38802;50.198;19.796;2023-05-01T13:47:49;96316.25;;;15.76;36.93
52935;BME280;38802;50.198;19.796;2023-05-01T13:50:18;96316.34;;;15.73;37.05
52935;BME280;38802;50.198;19.796;2023-05-01T13:52:46;96318.33;;;15.72;36.57
52935;BME280;38802;50.198;19.796;2023-05-01T13:55:17;96314.42;;;15.71;36.30
52935;BME280;38802;50.198;19.796;2023-05-01T13:57:48;96310.20;;;15.69;35.89
52935;BME280;38802;50.198;19.796;2023-05-01T14:00:16;96308.61;;;15.71;35.96
52935;BME280;38802;50.198;19.796;2023-05-01T14:02:47;96308.99;;;15.78;35.37
52935;BME280;38802;50.198;19.796;2023-05-01T14:05:26;96303.73;;;15.80;35.76
52935;BME280;38802;50.198;19.796;2023-05-01T14:07:57;96299.23;;;15.88;35.73